createdAt,value
2018-01-30T00:01:00.204Z,6.35
2018-01-30T00:02:00.773Z,6.35
2018-01-30T00:03:01.398Z,6.38
2018-01-30T00:04:01.913Z,6.38
2018-01-30T00:05:02.482Z,6.36
2018-01-30T00:06:03.050Z,6.35
2018-01-30T00:07:03.633Z,6.35
2018-01-30T00:08:04.202Z,6.36
2018-01-30T00:09:04.771Z,6.38
2018-01-30T00:10:05.339Z,6.35
2018-01-30T00:11:05.911Z,6.35
2018-01-30T00:12:06.478Z,6.51
2018-01-30T00:13:07.049Z,6.51
2018-01-30T00:14:07.619Z,6.45
2018-01-30T00:15:08.188Z,6.36
2018-01-30T00:16:08.756Z,6.42
2018-01-30T00:17:09.328Z,6.36
2018-01-30T00:18:09.908Z,6.33
2018-01-30T00:19:10.491Z,6.31
2018-01-30T00:20:11.059Z,6.35
2018-01-30T00:21:11.628Z,6.28
2018-01-30T00:22:12.198Z,6.26
2018-01-30T00:23:12.766Z,6.33
2018-01-30T00:24:13.335Z,6.16
2018-01-30T00:25:13.904Z,6.22
2018-01-30T00:26:14.472Z,6.17
2018-01-30T00:27:15.042Z,6.12
2018-01-30T00:28:15.612Z,6.07
2018-01-30T00:29:16.181Z,6.11
2018-01-30T00:30:16.751Z,6.01
2018-01-30T00:31:17.320Z,6.05
2018-01-30T00:32:17.888Z,5.99
2018-01-30T00:33:18.455Z,5.91
2018-01-30T00:34:19.025Z,6.01
2018-01-30T00:35:19.595Z,5.94
2018-01-30T00:36:20.164Z,5.93
2018-01-30T00:37:20.733Z,5.98
2018-01-30T00:38:21.301Z,5.97
2018-01-30T00:39:21.869Z,5.91
2018-01-30T00:40:22.439Z,5.90
2018-01-30T00:41:23.023Z,5.97
2018-01-30T00:42:23.593Z,5.98
2018-01-30T00:43:24.164Z,5.91
2018-01-30T00:44:24.732Z,5.87
2018-01-30T00:45:25.299Z,5.79
2018-01-30T00:46:25.868Z,5.79
2018-01-30T00:47:26.437Z,5.80
2018-01-30T00:48:27.007Z,5.80
2018-01-30T00:49:27.590Z,5.75
2018-01-30T00:50:28.175Z,5.79
2018-01-30T00:51:28.742Z,5.69
2018-01-30T00:52:29.313Z,5.79
2018-01-30T00:53:29.881Z,5.75
2018-01-30T00:54:30.450Z,5.64
2018-01-30T00:55:31.018Z,5.80
2018-01-30T00:56:31.587Z,5.61
2018-01-30T00:57:32.157Z,5.65
2018-01-30T00:58:32.726Z,5.62
2018-01-30T00:59:33.295Z,5.69
2018-01-30T01:00:33.862Z,5.61
2018-01-30T01:01:34.428Z,5.62
2018-01-30T01:02:34.997Z,5.51
2018-01-30T01:03:35.576Z,5.54
2018-01-30T01:04:36.156Z,5.59
2018-01-30T01:05:36.728Z,5.47
2018-01-30T01:06:37.293Z,5.51
2018-01-30T01:07:37.863Z,5.44
2018-01-30T01:08:38.428Z,5.48
2018-01-30T01:09:39.011Z,5.50
2018-01-30T01:10:39.580Z,5.50
2018-01-30T01:11:40.148Z,5.50
2018-01-30T01:12:40.715Z,5.43
2018-01-30T01:13:41.282Z,5.48
2018-01-30T01:14:41.851Z,5.50
2018-01-30T01:15:42.426Z,5.43
2018-01-30T01:16:42.988Z,5.44
2018-01-30T01:17:43.556Z,5.46
2018-01-30T01:18:44.124Z,5.44
2018-01-30T01:19:44.691Z,5.43
2018-01-30T01:20:45.258Z,5.29
2018-01-30T01:21:45.824Z,5.30
2018-01-30T01:22:46.391Z,5.35
2018-01-30T01:23:46.958Z,5.33
2018-01-30T01:24:47.527Z,5.25
2018-01-30T01:25:48.095Z,5.33
2018-01-30T01:26:48.663Z,5.17
2018-01-30T01:27:49.235Z,5.11
2018-01-30T01:28:49.798Z,5.20
2018-01-30T01:29:50.366Z,5.17
2018-01-30T01:30:50.933Z,5.12
2018-01-30T01:31:51.499Z,5.08
2018-01-30T01:32:52.067Z,5.08
2018-01-30T01:33:52.636Z,5.20
2018-01-30T01:34:53.203Z,5.28
2018-01-30T01:35:53.772Z,5.21
2018-01-30T01:36:54.340Z,5.12
2018-01-30T01:37:54.908Z,5.21
2018-01-30T01:38:55.491Z,5.11
2018-01-30T01:39:56.059Z,5.14
2018-01-30T01:40:56.628Z,5.11
2018-01-30T01:41:57.199Z,5.14
2018-01-30T01:42:57.766Z,5.17
2018-01-30T01:43:58.337Z,5.15
2018-01-30T01:44:58.906Z,5.15
2018-01-30T01:45:59.476Z,5.00
2018-01-30T01:47:00.043Z,5.12
2018-01-30T01:48:00.611Z,5.04
2018-01-30T01:49:01.180Z,5.05
2018-01-30T01:50:01.750Z,5.02
2018-01-30T01:51:02.316Z,4.93
2018-01-30T01:52:02.883Z,4.89
2018-01-30T01:53:03.456Z,4.87
2018-01-30T01:54:04.021Z,4.94
2018-01-30T01:55:04.589Z,4.84
2018-01-30T01:56:05.158Z,5.02
2018-01-30T01:57:05.726Z,4.92
2018-01-30T01:58:06.295Z,4.94
2018-01-30T01:59:06.877Z,4.80
2018-01-30T02:00:07.449Z,4.86
2018-01-30T02:01:08.014Z,4.96
2018-01-30T02:02:08.583Z,4.96
2018-01-30T02:03:09.151Z,4.90
2018-01-30T02:04:09.720Z,4.90
2018-01-30T02:05:10.287Z,4.89
2018-01-30T02:06:10.855Z,4.92
2018-01-30T02:07:11.424Z,4.93
2018-01-30T02:08:12.009Z,4.78
2018-01-30T02:09:12.574Z,4.77
2018-01-30T02:10:13.140Z,4.82
2018-01-30T02:11:13.708Z,4.74
2018-01-30T02:12:14.276Z,4.67
2018-01-30T02:13:14.843Z,4.74
2018-01-30T02:14:15.412Z,4.67
2018-01-30T02:15:15.979Z,4.77
2018-01-30T02:16:16.545Z,4.73
2018-01-30T02:17:17.112Z,4.71
2018-01-30T02:18:17.678Z,4.77
2018-01-30T02:19:18.245Z,4.77
2018-01-30T02:20:18.812Z,4.73
2018-01-30T02:21:19.384Z,4.73
2018-01-30T02:22:19.947Z,4.86
2018-01-30T02:23:20.516Z,4.66
2018-01-30T02:24:21.083Z,4.70
2018-01-30T02:25:21.651Z,4.60
2018-01-30T02:26:22.217Z,4.62
2018-01-30T02:27:22.797Z,4.58
2018-01-30T02:28:23.379Z,4.66
2018-01-30T02:29:23.948Z,4.52
2018-01-30T02:30:24.515Z,4.45
2018-01-30T02:31:25.081Z,4.49
2018-01-30T02:32:25.648Z,4.53
2018-01-30T02:33:26.217Z,4.42
2018-01-30T02:34:26.779Z,4.45
2018-01-30T02:35:27.346Z,4.48
2018-01-30T02:36:27.918Z,4.48
2018-01-30T02:37:28.480Z,4.42
2018-01-30T02:38:29.049Z,4.40
2018-01-30T02:39:29.616Z,4.50
2018-01-30T02:40:30.194Z,4.42
2018-01-30T02:41:30.754Z,4.42
2018-01-30T02:42:31.331Z,4.55
2018-01-30T02:43:31.901Z,4.52
2018-01-30T02:44:32.465Z,4.50
2018-01-30T02:45:33.031Z,4.56
2018-01-30T02:46:33.596Z,4.53
2018-01-30T02:47:34.163Z,4.53
2018-01-30T02:48:34.729Z,4.53
2018-01-30T02:49:35.294Z,4.56
2018-01-30T02:50:35.861Z,4.58
2018-01-30T02:51:36.430Z,4.55
2018-01-30T02:52:37.028Z,4.62
2018-01-30T02:53:37.579Z,4.59
2018-01-30T02:54:38.145Z,4.60
2018-01-30T02:55:38.714Z,4.56
2018-01-30T02:56:39.296Z,4.58
2018-01-30T02:57:39.862Z,4.59
2018-01-30T02:58:40.430Z,4.59
2018-01-30T02:59:41.000Z,4.58
2018-01-30T03:00:41.568Z,4.66
2018-01-30T03:01:42.131Z,4.58
2018-01-30T03:02:42.696Z,4.59
2018-01-30T03:03:43.263Z,4.66
2018-01-30T03:04:43.828Z,4.66
2018-01-30T03:05:44.396Z,4.60
2018-01-30T03:06:44.962Z,4.56
2018-01-30T03:07:45.528Z,4.50
2018-01-30T03:08:46.096Z,4.56
2018-01-30T03:09:46.675Z,4.48
2018-01-30T03:10:47.239Z,4.50
2018-01-30T03:11:47.807Z,4.48
2018-01-30T03:12:48.376Z,4.50
2018-01-30T03:13:48.943Z,4.60
2018-01-30T03:14:49.512Z,4.56
2018-01-30T03:15:50.078Z,4.56
2018-01-30T03:16:50.644Z,4.59
2018-01-30T03:17:51.210Z,4.53
2018-01-30T03:18:51.781Z,4.48
2018-01-30T03:19:52.343Z,4.50
2018-01-30T03:20:52.924Z,4.53
2018-01-30T03:21:53.489Z,4.52
2018-01-30T03:22:54.056Z,4.50
2018-01-30T03:23:54.625Z,4.40
2018-01-30T03:24:55.190Z,4.42
2018-01-30T03:25:55.757Z,4.32
2018-01-30T03:26:56.324Z,4.42
2018-01-30T03:27:56.905Z,4.41
2018-01-30T03:28:57.474Z,4.41
2018-01-30T03:29:58.052Z,4.49
2018-01-30T03:30:58.618Z,4.41
2018-01-30T03:31:59.183Z,4.38
2018-01-30T03:32:59.749Z,4.40
2018-01-30T03:34:00.317Z,4.32
2018-01-30T03:35:00.889Z,4.41
2018-01-30T03:36:01.453Z,4.38
2018-01-30T03:37:02.022Z,4.42
2018-01-30T03:38:02.588Z,4.41
2018-01-30T03:39:03.169Z,4.35
2018-01-30T03:40:03.737Z,4.42
2018-01-30T03:41:04.304Z,4.49
2018-01-30T03:42:04.870Z,4.48
2018-01-30T03:43:05.436Z,4.40
2018-01-30T03:44:06.003Z,4.40
2018-01-30T03:45:06.584Z,4.35
2018-01-30T03:46:07.163Z,4.41
2018-01-30T03:47:07.729Z,4.41
2018-01-30T03:48:08.311Z,4.41
2018-01-30T03:49:08.878Z,4.37
2018-01-30T03:50:09.448Z,4.40
2018-01-30T03:51:10.013Z,4.30
2018-01-30T03:52:10.594Z,4.40
2018-01-30T03:53:11.163Z,4.35
2018-01-30T03:54:11.727Z,4.28
2018-01-30T03:55:12.299Z,4.34
2018-01-30T03:56:12.860Z,4.24
2018-01-30T03:57:13.424Z,4.34
2018-01-30T03:58:13.987Z,4.28
2018-01-30T03:59:14.554Z,4.28
2018-01-30T04:00:15.129Z,4.20
2018-01-30T04:01:15.694Z,4.24
2018-01-30T04:02:16.260Z,4.14
2018-01-30T04:03:16.825Z,4.22
2018-01-30T04:04:17.389Z,4.20
2018-01-30T04:05:17.956Z,4.22
2018-01-30T04:06:18.521Z,4.32
2018-01-30T04:07:19.085Z,4.28
2018-01-30T04:08:19.650Z,4.32
2018-01-30T04:09:20.214Z,4.31
2018-01-30T04:10:20.779Z,4.35
2018-01-30T04:11:21.344Z,4.30
2018-01-30T04:12:21.908Z,4.30
2018-01-30T04:13:22.485Z,4.24
2018-01-30T04:14:23.052Z,4.28
2018-01-30T04:15:23.618Z,4.28
2018-01-30T04:16:24.185Z,4.32
2018-01-30T04:17:24.751Z,4.35
2018-01-30T04:18:25.317Z,4.42
2018-01-30T04:19:25.883Z,4.32
2018-01-30T04:20:26.449Z,4.37
2018-01-30T04:21:27.017Z,4.32
2018-01-30T04:22:27.583Z,4.34
2018-01-30T04:23:28.149Z,4.31
2018-01-30T04:24:28.716Z,4.28
2018-01-30T04:25:29.283Z,4.28
2018-01-30T04:26:29.848Z,4.23
2018-01-30T04:27:30.416Z,4.24
2018-01-30T04:28:30.981Z,4.31
2018-01-30T04:29:31.547Z,4.28
2018-01-30T04:30:32.112Z,4.34
2018-01-30T04:31:32.681Z,4.20
2018-01-30T04:32:33.242Z,4.20
2018-01-30T04:33:33.808Z,4.23
2018-01-30T04:34:34.375Z,4.14
2018-01-30T04:35:34.942Z,4.20
2018-01-30T04:36:35.510Z,4.12
2018-01-30T04:37:36.077Z,4.14
2018-01-30T04:38:36.658Z,4.19
2018-01-30T04:39:37.226Z,4.14
2018-01-30T04:40:37.793Z,4.17
2018-01-30T04:41:38.364Z,4.13
2018-01-30T04:42:38.942Z,4.16
2018-01-30T04:43:39.510Z,4.28
2018-01-30T04:44:40.076Z,4.20
2018-01-30T04:45:40.643Z,4.26
2018-01-30T04:46:41.208Z,4.22
2018-01-30T04:47:41.773Z,4.22
2018-01-30T04:48:42.339Z,4.20
2018-01-30T04:49:42.903Z,4.16
2018-01-30T04:50:43.468Z,4.23
2018-01-30T04:51:44.034Z,4.19
2018-01-30T04:52:44.600Z,4.14
2018-01-30T04:53:45.166Z,4.26
2018-01-30T04:54:45.731Z,4.17
2018-01-30T04:55:46.300Z,4.14
2018-01-30T04:56:46.866Z,4.19
2018-01-30T04:57:47.436Z,4.13
2018-01-30T04:58:48.001Z,4.22
2018-01-30T04:59:48.567Z,4.37
2018-01-30T05:00:49.133Z,4.32
2018-01-30T05:01:49.699Z,4.31
2018-01-30T05:02:50.264Z,4.31
2018-01-30T05:03:50.830Z,4.32
2018-01-30T05:04:51.396Z,4.30
2018-01-30T05:05:51.962Z,4.30
2018-01-30T05:06:52.542Z,4.35
2018-01-30T05:07:53.106Z,4.34
2018-01-30T05:08:53.670Z,4.41
2018-01-30T05:09:54.251Z,4.32
2018-01-30T05:10:54.818Z,4.32
2018-01-30T05:11:55.387Z,4.26
2018-01-30T05:12:55.951Z,4.30
2018-01-30T05:13:56.517Z,4.34
2018-01-30T05:14:57.086Z,4.32
2018-01-30T05:15:57.658Z,4.37
2018-01-30T05:16:58.222Z,4.35
2018-01-30T05:17:58.802Z,4.40
2018-01-30T05:18:59.382Z,4.34
2018-01-30T05:19:59.950Z,4.38
2018-01-30T05:21:00.518Z,4.40
2018-01-30T05:22:01.084Z,4.35
2018-01-30T05:23:01.653Z,4.28
2018-01-30T05:24:02.218Z,4.31
2018-01-30T05:25:02.784Z,4.28
2018-01-30T05:26:03.349Z,4.28
2018-01-30T05:27:03.915Z,4.32
2018-01-30T05:28:04.480Z,4.28
2018-01-30T05:29:05.045Z,4.32
2018-01-30T05:30:05.611Z,4.37
2018-01-30T05:31:06.177Z,4.31
2018-01-30T05:32:06.744Z,4.30
2018-01-30T05:33:07.311Z,4.41
2018-01-30T05:34:07.882Z,4.34
2018-01-30T05:35:08.446Z,4.35
2018-01-30T05:36:09.018Z,4.30
2018-01-30T05:37:09.578Z,4.41
2018-01-30T05:38:10.143Z,4.31
2018-01-30T05:39:10.709Z,4.31
2018-01-30T05:40:11.275Z,4.26
2018-01-30T05:41:11.839Z,4.31
2018-01-30T05:42:12.406Z,4.35
2018-01-30T05:43:12.974Z,4.26
2018-01-30T05:44:13.543Z,4.31
2018-01-30T05:45:14.107Z,4.26
2018-01-30T05:46:14.672Z,4.24
2018-01-30T05:47:15.241Z,4.24
2018-01-30T05:48:15.806Z,4.30
2018-01-30T05:49:16.372Z,4.31
2018-01-30T05:50:16.938Z,4.20
2018-01-30T05:51:17.518Z,4.30
2018-01-30T05:52:18.087Z,4.28
2018-01-30T05:53:18.651Z,4.28
2018-01-30T05:54:19.217Z,4.20
2018-01-30T05:55:19.782Z,4.22
2018-01-30T05:56:20.348Z,4.20
2018-01-30T05:57:20.928Z,4.20
2018-01-30T05:58:21.495Z,4.31
2018-01-30T05:59:22.058Z,4.26
2018-01-30T06:00:22.623Z,4.31
2018-01-30T06:01:23.188Z,4.28
2018-01-30T06:02:23.752Z,4.28
2018-01-30T06:03:24.332Z,4.26
2018-01-30T06:04:24.900Z,4.26
2018-01-30T06:05:25.465Z,4.19
2018-01-30T06:06:26.031Z,4.20
2018-01-30T06:07:26.597Z,4.20
2018-01-30T06:08:27.163Z,4.17
2018-01-30T06:09:27.729Z,4.20
2018-01-30T06:10:28.295Z,4.13
2018-01-30T06:11:28.863Z,4.12
2018-01-30T06:12:29.430Z,4.12
2018-01-30T06:13:29.998Z,4.04
2018-01-30T06:14:30.564Z,4.17
2018-01-30T06:15:31.132Z,4.14
2018-01-30T06:16:31.696Z,4.16
2018-01-30T06:17:32.261Z,3.99
2018-01-30T06:18:32.826Z,4.08
2018-01-30T06:19:33.407Z,4.12
2018-01-30T06:20:33.972Z,4.13
2018-01-30T06:21:34.543Z,4.16
2018-01-30T06:22:35.103Z,4.22
2018-01-30T06:23:35.669Z,4.08
2018-01-30T06:24:36.234Z,4.19
2018-01-30T06:25:36.800Z,4.08
2018-01-30T06:26:37.380Z,4.14
2018-01-30T06:27:37.934Z,4.12
2018-01-30T06:28:38.512Z,4.08
2018-01-30T06:29:39.078Z,4.04
2018-01-30T06:30:39.643Z,4.06
2018-01-30T06:31:40.209Z,4.10
2018-01-30T06:32:40.776Z,4.05
2018-01-30T06:33:41.344Z,4.12
2018-01-30T06:34:41.912Z,4.12
2018-01-30T06:35:42.478Z,4.06
2018-01-30T06:36:43.045Z,4.06
2018-01-30T06:37:43.611Z,4.06
2018-01-30T06:38:44.177Z,4.08
2018-01-30T06:39:44.749Z,3.98
2018-01-30T06:40:45.307Z,3.99
2018-01-30T06:41:45.872Z,4.13
2018-01-30T06:42:46.439Z,4.01
2018-01-30T06:43:47.008Z,4.12
2018-01-30T06:44:47.574Z,4.13
2018-01-30T06:45:48.142Z,4.10
2018-01-30T06:46:48.724Z,4.02
2018-01-30T06:47:49.289Z,4.12
2018-01-30T06:48:49.857Z,4.04
2018-01-30T06:49:50.423Z,4.08
2018-01-30T06:50:50.989Z,4.08
2018-01-30T06:51:51.558Z,4.06
2018-01-30T06:52:52.140Z,4.12
2018-01-30T06:53:52.703Z,4.05
2018-01-30T06:54:53.269Z,4.06
2018-01-30T06:55:53.835Z,4.04
2018-01-30T06:56:54.401Z,4.05
2018-01-30T06:57:54.968Z,4.08
2018-01-30T06:58:55.536Z,4.12
2018-01-30T06:59:56.104Z,4.12
2018-01-30T07:00:56.672Z,4.06
2018-01-30T07:01:57.238Z,4.13
2018-01-30T07:02:57.804Z,4.10
2018-01-30T07:03:58.370Z,4.05
2018-01-30T07:04:58.935Z,4.05
2018-01-30T07:05:59.500Z,3.98
2018-01-30T07:07:00.065Z,4.06
2018-01-30T07:08:00.629Z,3.91
2018-01-30T07:09:01.197Z,4.02
2018-01-30T07:10:01.777Z,4.01
2018-01-30T07:11:02.344Z,3.96
2018-01-30T07:12:02.911Z,3.99
2018-01-30T07:13:03.480Z,4.02
2018-01-30T07:14:04.048Z,3.92
2018-01-30T07:15:04.617Z,3.99
2018-01-30T07:16:05.183Z,4.02
2018-01-30T07:17:05.749Z,4.01
2018-01-30T07:18:06.316Z,3.94
2018-01-30T07:19:06.897Z,3.88
2018-01-30T07:20:07.474Z,3.87
2018-01-30T07:21:08.047Z,3.94
2018-01-30T07:22:08.613Z,3.95
2018-01-30T07:23:09.179Z,3.98
2018-01-30T07:24:09.744Z,3.92
2018-01-30T07:25:10.313Z,3.88
2018-01-30T07:26:10.883Z,3.92
2018-01-30T07:27:11.449Z,3.87
2018-01-30T07:28:12.017Z,3.88
2018-01-30T07:29:12.598Z,3.91
2018-01-30T07:30:13.165Z,3.80
2018-01-30T07:31:13.733Z,3.76
2018-01-30T07:32:14.299Z,3.68
2018-01-30T07:33:14.917Z,3.65
2018-01-30T07:34:15.447Z,3.68
2018-01-30T07:35:16.015Z,3.77
2018-01-30T07:36:16.582Z,3.80
2018-01-30T07:37:17.147Z,3.77
2018-01-30T07:38:17.727Z,3.74
2018-01-30T07:39:18.309Z,3.73
2018-01-30T07:40:18.878Z,3.78
2018-01-30T07:41:19.443Z,3.77
2018-01-30T07:42:20.011Z,3.74
2018-01-30T07:43:20.581Z,3.87
2018-01-30T07:44:21.148Z,3.80
2018-01-30T07:45:21.715Z,3.70
2018-01-30T07:46:22.282Z,3.78
2018-01-30T07:47:22.850Z,3.80
2018-01-30T07:48:23.417Z,3.81
2018-01-30T07:49:23.985Z,3.73
2018-01-30T07:50:24.556Z,3.87
2018-01-30T07:51:25.123Z,3.80
2018-01-30T07:52:25.692Z,3.80
2018-01-30T07:53:26.276Z,3.76
2018-01-30T07:54:26.843Z,3.76
2018-01-30T07:55:27.411Z,3.77
2018-01-30T07:56:27.981Z,3.83
2018-01-30T07:57:28.550Z,3.83
2018-01-30T07:58:29.119Z,3.80
2018-01-30T07:59:29.699Z,3.83
2018-01-30T08:00:30.268Z,3.92
2018-01-30T08:01:30.836Z,3.86
2018-01-30T08:02:31.406Z,3.81
2018-01-30T08:03:31.986Z,3.87
2018-01-30T08:04:32.554Z,3.84
2018-01-30T08:05:33.122Z,3.95
2018-01-30T08:06:33.692Z,3.88
2018-01-30T08:07:34.262Z,3.92
2018-01-30T08:08:34.831Z,3.91
2018-01-30T08:09:35.398Z,3.96
2018-01-30T08:10:35.969Z,3.96
2018-01-30T08:11:36.538Z,3.96
2018-01-30T08:12:37.108Z,4.01
2018-01-30T08:13:37.675Z,4.01
2018-01-30T08:14:38.258Z,4.01
2018-01-30T08:15:38.828Z,4.02
2018-01-30T08:16:39.408Z,4.02
2018-01-30T08:17:39.975Z,4.05
2018-01-30T08:18:40.542Z,4.05
2018-01-30T08:19:41.114Z,4.05
2018-01-30T08:20:41.682Z,4.05
2018-01-30T08:21:42.252Z,4.08
2018-01-30T08:22:42.820Z,4.04
2018-01-30T08:23:43.390Z,4.05
2018-01-30T08:24:43.960Z,4.02
2018-01-30T08:25:44.528Z,4.06
2018-01-30T08:26:45.096Z,4.08
2018-01-30T08:27:45.664Z,4.12
2018-01-30T08:28:46.233Z,4.13
2018-01-30T08:29:46.802Z,4.14
2018-01-30T08:30:47.370Z,4.12
2018-01-30T08:31:47.939Z,4.13
2018-01-30T08:32:48.507Z,4.16
2018-01-30T08:33:49.077Z,4.19
2018-01-30T08:34:49.649Z,4.24
2018-01-30T08:35:50.216Z,4.17
2018-01-30T08:36:50.786Z,4.19
2018-01-30T08:37:51.355Z,4.28
2018-01-30T08:38:51.926Z,4.31
2018-01-30T08:39:52.498Z,4.32
2018-01-30T08:40:53.066Z,4.34
2018-01-30T08:41:53.637Z,4.42
2018-01-30T08:42:54.209Z,4.40
2018-01-30T08:43:54.777Z,4.50
2018-01-30T08:44:55.347Z,4.42
2018-01-30T08:45:55.919Z,4.45
2018-01-30T08:46:56.487Z,4.50
2018-01-30T08:47:57.057Z,4.60
2018-01-30T08:48:57.628Z,4.60
2018-01-30T08:49:58.195Z,4.67
2018-01-30T08:50:58.776Z,4.74
2018-01-30T08:51:59.348Z,4.67
2018-01-30T08:52:59.917Z,4.66
2018-01-30T08:54:00.487Z,4.74
2018-01-30T08:55:01.057Z,4.77
2018-01-30T08:56:01.644Z,4.78
2018-01-30T08:57:02.211Z,4.74
2018-01-30T08:58:02.782Z,4.86
2018-01-30T08:59:03.367Z,4.82
2018-01-30T09:00:03.936Z,4.80
2018-01-30T09:01:04.505Z,4.87
2018-01-30T09:02:05.088Z,4.77
2018-01-30T09:03:05.673Z,4.93
2018-01-30T09:04:06.243Z,4.84
2018-01-30T09:05:06.813Z,4.84
2018-01-30T09:06:07.384Z,4.86
2018-01-30T09:07:07.967Z,5.00
2018-01-30T09:08:08.551Z,5.04
2018-01-30T09:09:09.125Z,4.99
2018-01-30T09:10:09.690Z,4.99
2018-01-30T09:11:10.260Z,5.08
2018-01-30T09:12:10.830Z,5.04
2018-01-30T09:13:11.402Z,5.04
2018-01-30T09:14:11.971Z,5.10
2018-01-30T09:15:12.540Z,5.17
2018-01-30T09:16:13.113Z,5.12
2018-01-30T09:17:13.680Z,5.02
2018-01-30T09:18:14.251Z,5.05
2018-01-30T09:19:14.821Z,5.10
2018-01-30T09:20:15.392Z,5.17
2018-01-30T09:21:15.965Z,5.14
2018-01-30T09:22:16.550Z,5.04
2018-01-30T09:23:17.121Z,5.11
2018-01-30T09:24:17.690Z,5.11
2018-01-30T09:25:18.263Z,5.05
2018-01-30T09:26:18.832Z,5.10
2018-01-30T09:27:19.402Z,5.14
2018-01-30T09:28:19.971Z,5.18
2018-01-30T09:29:20.542Z,5.25
2018-01-30T09:30:21.115Z,5.43
2018-01-30T09:31:21.684Z,5.38
2018-01-30T09:32:22.269Z,5.35
2018-01-30T09:33:22.839Z,5.38
2018-01-30T09:34:23.411Z,5.35
2018-01-30T09:35:23.982Z,5.35
2018-01-30T09:36:24.550Z,5.48
2018-01-30T09:37:25.120Z,5.54
2018-01-30T09:38:25.692Z,5.61
2018-01-30T09:39:26.263Z,5.61
2018-01-30T09:40:26.838Z,5.69
2018-01-30T09:41:27.404Z,5.79
2018-01-30T09:42:27.983Z,5.98
2018-01-30T09:43:28.552Z,6.72
2018-01-30T09:44:29.123Z,6.27
2018-01-30T09:45:29.695Z,6.26
2018-01-30T09:46:30.268Z,5.99
2018-01-30T09:47:30.837Z,5.59
2018-01-30T09:48:31.409Z,5.91
2018-01-30T09:49:31.982Z,6.30
2018-01-30T09:50:32.554Z,5.76
2018-01-30T09:51:33.119Z,5.65
2018-01-30T09:52:33.703Z,5.90
2018-01-30T09:53:34.274Z,5.46
2018-01-30T09:54:34.847Z,5.51
2018-01-30T09:55:35.415Z,5.39
2018-01-30T09:56:35.985Z,5.46
2018-01-30T09:57:36.557Z,5.46
2018-01-30T09:58:37.128Z,5.65
2018-01-30T09:59:37.700Z,6.20
2018-01-30T10:00:38.270Z,5.44
2018-01-30T10:01:38.855Z,5.48
2018-01-30T10:02:39.426Z,5.57
2018-01-30T10:03:39.999Z,5.54
2018-01-30T10:04:40.572Z,5.53
2018-01-30T10:05:41.140Z,5.50
2018-01-30T10:06:41.712Z,5.90
2018-01-30T10:07:42.288Z,5.72
2018-01-30T10:08:42.869Z,5.72
2018-01-30T10:09:43.472Z,5.48
2018-01-30T10:10:44.010Z,5.44
2018-01-30T10:11:44.580Z,5.39
2018-01-30T10:12:45.153Z,5.48
2018-01-30T10:13:45.722Z,5.38
2018-01-30T10:14:46.293Z,5.56
2018-01-30T10:15:46.865Z,5.48
2018-01-30T10:16:47.437Z,5.57
2018-01-30T10:17:48.009Z,5.47
2018-01-30T10:18:48.579Z,5.57
2018-01-30T10:19:49.150Z,5.51
2018-01-30T10:20:49.722Z,5.53
2018-01-30T10:21:50.292Z,5.56
2018-01-30T10:22:50.862Z,5.56
2018-01-30T10:23:51.435Z,5.56
2018-01-30T10:24:52.005Z,5.53
2018-01-30T10:25:52.575Z,5.61
2018-01-30T10:26:53.146Z,5.53
2018-01-30T10:27:53.716Z,5.50
2018-01-30T10:28:54.301Z,5.50
2018-01-30T10:29:54.872Z,5.51
2018-01-30T10:30:55.443Z,5.51
2018-01-30T10:31:56.014Z,5.54
2018-01-30T10:32:56.586Z,5.61
2018-01-30T10:33:57.155Z,5.72
2018-01-30T10:34:57.726Z,5.76
2018-01-30T10:35:58.297Z,5.79
2018-01-30T10:36:58.870Z,5.75
2018-01-30T10:37:59.441Z,5.84
2018-01-30T10:39:00.013Z,5.79
2018-01-30T10:40:00.582Z,5.91
2018-01-30T10:41:01.154Z,5.90
2018-01-30T10:42:01.724Z,5.80
2018-01-30T10:43:02.294Z,5.66
2018-01-30T10:44:02.867Z,5.71
2018-01-30T10:45:03.436Z,5.83
2018-01-30T10:46:04.007Z,5.86
2018-01-30T10:47:04.577Z,5.71
2018-01-30T10:48:05.147Z,5.66
2018-01-30T10:49:05.718Z,5.76
2018-01-30T10:50:06.340Z,5.79
2018-01-30T10:51:06.858Z,5.99
2018-01-30T10:52:07.430Z,5.91
2018-01-30T10:53:08.001Z,5.94
2018-01-30T10:54:08.572Z,6.16
2018-01-30T10:55:09.142Z,6.08
2018-01-30T10:56:09.714Z,6.05
2018-01-30T10:57:10.286Z,6.11
2018-01-30T10:58:10.857Z,6.26
2018-01-30T10:59:11.445Z,6.20
2018-01-30T11:00:11.999Z,5.97
2018-01-30T11:01:12.568Z,6.11
2018-01-30T11:02:13.139Z,6.26
2018-01-30T11:03:13.710Z,6.30
2018-01-30T11:04:14.281Z,6.27
2018-01-30T11:05:14.854Z,6.30
2018-01-30T11:06:15.424Z,6.31
2018-01-30T11:07:15.996Z,6.38
2018-01-30T11:08:16.567Z,6.33
2018-01-30T11:09:17.138Z,6.30
2018-01-30T11:10:17.714Z,6.24
2018-01-30T11:11:18.280Z,6.09
2018-01-30T11:12:18.851Z,6.01
2018-01-30T11:13:19.422Z,6.05
2018-01-30T11:14:20.007Z,6.09
2018-01-30T11:15:20.592Z,6.27
2018-01-30T11:16:21.162Z,6.20
2018-01-30T11:17:21.733Z,6.24
2018-01-30T11:18:22.317Z,6.28
2018-01-30T11:19:22.887Z,6.27
2018-01-30T11:20:23.460Z,6.16
2018-01-30T11:21:24.037Z,6.05
2018-01-30T11:22:24.616Z,6.05
2018-01-30T11:23:25.186Z,6.27
2018-01-30T11:24:25.757Z,6.14
2018-01-30T11:25:26.330Z,6.22
2018-01-30T11:26:26.899Z,6.24
2018-01-30T11:27:27.471Z,6.26
2018-01-30T11:28:28.041Z,6.36
2018-01-30T11:29:28.629Z,6.36
2018-01-30T11:30:29.199Z,6.22
2018-01-30T11:31:29.773Z,6.33
2018-01-30T11:32:30.345Z,6.28
2018-01-30T11:33:30.918Z,6.39
2018-01-30T11:34:31.492Z,6.41
2018-01-30T11:35:32.064Z,6.39
2018-01-30T11:36:32.636Z,6.48
2018-01-30T11:37:33.222Z,6.48
2018-01-30T11:38:33.794Z,6.56
2018-01-30T11:39:34.371Z,6.56
2018-01-30T11:40:34.937Z,6.51
2018-01-30T11:41:35.510Z,6.54
2018-01-30T11:42:36.082Z,6.66
2018-01-30T11:43:36.652Z,6.62
2018-01-30T11:44:37.237Z,6.54
2018-01-30T11:45:37.808Z,6.45
2018-01-30T11:46:38.380Z,6.59
2018-01-30T11:47:38.956Z,6.51
2018-01-30T11:48:39.529Z,6.46
2018-01-30T11:49:40.100Z,6.54
2018-01-30T11:50:40.674Z,6.35
2018-01-30T11:51:41.243Z,6.31
2018-01-30T11:52:41.821Z,6.39
2018-01-30T11:53:42.390Z,6.24
2018-01-30T11:54:42.960Z,6.27
2018-01-30T11:55:43.531Z,6.39
2018-01-30T11:56:44.103Z,6.36
2018-01-30T11:57:44.676Z,6.26
2018-01-30T11:58:45.261Z,6.30
2018-01-30T11:59:45.832Z,6.28
2018-01-30T12:00:46.402Z,6.27
2018-01-30T12:01:46.975Z,6.19
2018-01-30T12:02:47.560Z,6.35
2018-01-30T12:03:48.145Z,6.28
2018-01-30T12:04:48.719Z,6.36
2018-01-30T12:05:49.289Z,6.35
2018-01-30T12:06:49.861Z,6.49
2018-01-30T12:07:50.436Z,6.59
2018-01-30T12:08:51.007Z,6.70
2018-01-30T12:09:51.578Z,6.81
2018-01-30T12:10:52.152Z,6.78
2018-01-30T12:11:52.723Z,6.77
2018-01-30T12:12:53.296Z,6.79
2018-01-30T12:13:53.869Z,6.82
2018-01-30T12:14:54.441Z,6.79
2018-01-30T12:15:55.011Z,6.81
2018-01-30T12:16:55.585Z,6.85
2018-01-30T12:17:56.157Z,6.82
2018-01-30T12:18:56.729Z,6.72
2018-01-30T12:19:57.301Z,6.69
2018-01-30T12:20:57.872Z,6.60
2018-01-30T12:21:58.445Z,6.63
2018-01-30T12:22:59.016Z,6.67
2018-01-30T12:23:59.589Z,6.72
2018-01-30T12:25:00.162Z,6.63
2018-01-30T12:26:00.734Z,6.62
2018-01-30T12:27:01.307Z,6.75
2018-01-30T12:28:01.881Z,6.82
2018-01-30T12:29:02.453Z,6.87
2018-01-30T12:30:03.028Z,6.79
2018-01-30T12:31:03.599Z,6.87
2018-01-30T12:32:04.171Z,6.89
2018-01-30T12:33:04.745Z,6.78
2018-01-30T12:34:05.318Z,6.87
2018-01-30T12:35:05.889Z,6.88
2018-01-30T12:36:06.462Z,7.07
2018-01-30T12:37:07.039Z,6.96
2018-01-30T12:38:07.623Z,6.96
2018-01-30T12:39:08.195Z,6.97
2018-01-30T12:40:08.769Z,6.92
2018-01-30T12:41:09.343Z,6.85
2018-01-30T12:42:09.915Z,6.92
2018-01-30T12:43:10.486Z,6.82
2018-01-30T12:44:11.061Z,6.82
2018-01-30T12:45:11.632Z,6.88
2018-01-30T12:46:12.203Z,6.92
2018-01-30T12:47:12.777Z,6.97
2018-01-30T12:48:13.350Z,6.89
2018-01-30T12:49:13.933Z,6.84
2018-01-30T12:50:14.507Z,6.84
2018-01-30T12:51:15.083Z,6.85
2018-01-30T12:52:15.651Z,6.81
2018-01-30T12:53:16.238Z,6.87
2018-01-30T12:54:16.811Z,6.85
2018-01-30T12:55:17.384Z,6.79
2018-01-30T12:56:17.955Z,6.84
2018-01-30T12:57:18.529Z,6.79
2018-01-30T12:58:19.101Z,6.69
2018-01-30T12:59:19.674Z,6.75
2018-01-30T13:00:20.249Z,6.70
2018-01-30T13:01:20.821Z,6.77
2018-01-30T13:02:21.393Z,6.81
2018-01-30T13:03:21.967Z,6.74
2018-01-30T13:04:22.539Z,6.85
2018-01-30T13:05:23.125Z,6.81
2018-01-30T13:06:23.698Z,6.88
2018-01-30T13:07:24.271Z,6.88
2018-01-30T13:08:24.842Z,7.00
2018-01-30T13:09:25.413Z,7.10
2018-01-30T13:10:25.997Z,6.97
2018-01-30T13:11:26.570Z,7.02
2018-01-30T13:12:27.143Z,7.17
2018-01-30T13:13:27.714Z,7.13
2018-01-30T13:14:28.285Z,7.10
2018-01-30T13:15:28.872Z,7.03
2018-01-30T13:16:29.434Z,7.17
2018-01-30T13:17:30.008Z,7.17
2018-01-30T13:18:30.575Z,7.03
2018-01-30T13:19:31.162Z,7.15
2018-01-30T13:20:31.734Z,7.24
2018-01-30T13:21:32.315Z,7.17
2018-01-30T13:22:32.879Z,7.17
2018-01-30T13:23:33.463Z,7.33
2018-01-30T13:24:34.038Z,7.15
2018-01-30T13:25:34.610Z,7.17
2018-01-30T13:26:35.182Z,7.18